Check out our new BloomSky Weather System.

Active alerts

Galveston, TX
  Details for Galveston, TX Coastal Flood Advisory  +3 additional alerts
Houston, TX
  Details for Houston, TX Flash Flood Watch
Fort Bend, TX
  Details for Fort Bend, TX Flash Flood Watch


Thunder radar  blitzortung!


Rain radar more information rain snow radar


Visit our other weather sites:

Template documentation
and downloads

And another site



Weather Underground History page Text

Daily Summary for May 28, 2017 Units:  English    Metric   Both
« Previous Day
Next Day »
Daily Weekly Monthly Yearly Custom
  High: Low: Average:
Temperature: TemperatureF °F 71.4 °F 84 °F
Dew Point: DewpointF °F 69.1 °F 76.6 °F
Humidity: Humidity % 62 % 79 %
Wind Speed: WindSpeedMPH mph 0.0 mph 4.4 mph
Wind Gust: WindSpeedGustMPH mph - -
Wind:- - SSE
Pressure: PressureIn in 29.77 in -
Precipitation: 0.34 in    
Historical Graphs
 
 
Tabular Data for May 28, 2017
Time Temperature Dew Point Pressure Wind Wind Speed Wind Gust Humidity Rainfall Rate (Hourly)
TemperatureF °F DewpointF °F PressureIn in Calm     Humidity % HourlyPrecipIn in
00:01 80.2 °F 76.6 °F 29.83 in South 5.0 mph 13.0 mph 89 % 0.00 in
00:06 80.2 °F 76.6 °F 29.83 in SE 6.0 mph 13.0 mph 89 % 0.00 in
00:11 80.2 °F 76.6 °F 29.83 in SSE 8.0 mph 15.0 mph 89 % 0.00 in
00:16 80.4 °F 76.8 °F 29.83 in SE 5.0 mph 15.0 mph 89 % 0.00 in
00:21 80.4 °F 76.8 °F 29.83 in SE 6.0 mph 15.0 mph 89 % 0.00 in
00:26 80.4 °F 76.8 °F 29.83 in South 3.0 mph 14.0 mph 89 % 0.00 in
00:31 80.4 °F 76.8 °F 29.83 in SE 5.0 mph 14.0 mph 89 % 0.00 in
00:36 80.2 °F 76.6 °F 29.84 in SSE 5.0 mph 14.0 mph 89 % 0.00 in
00:41 80.2 °F 76.6 °F 29.84 in SSE 12.0 mph 13.0 mph 89 % 0.00 in
00:46 80.2 °F 76.6 °F 29.84 in SSW 5.0 mph 13.0 mph 89 % 0.00 in
00:51 80.2 °F 76.6 °F 29.84 in South 5.0 mph 13.0 mph 89 % 0.00 in
00:56 80.2 °F 76.6 °F 29.84 in SSW 5.0 mph 13.0 mph 89 % 0.00 in
01:01 80.2 °F 76.6 °F 29.84 in SSE 6.0 mph 9.0 mph 89 % 0.00 in
01:06 80.2 °F 76.6 °F 29.84 in SSW 4.0 mph 9.0 mph 89 % 0.00 in
01:11 80.2 °F 76.6 °F 29.84 in SSW 5.0 mph 13.0 mph 89 % 0.00 in
01:16 80.2 °F 76.6 °F 29.84 in SE 5.0 mph 14.0 mph 89 % 0.00 in
01:21 80.2 °F 76.6 °F 29.84 in South 5.0 mph 14.0 mph 89 % 0.00 in
01:26 80.2 °F 76.6 °F 29.84 in South 4.0 mph 14.0 mph 89 % 0.00 in
01:31 80.2 °F 76.6 °F 29.84 in SSW 6.0 mph 12.0 mph 89 % 0.00 in
01:36 80.2 °F 76.6 °F 29.84 in SSE 7.0 mph 12.0 mph 89 % 0.00 in
01:41 80.2 °F 76.6 °F 29.84 in SSE 4.0 mph 13.0 mph 89 % 0.00 in
01:46 80.2 °F 76.6 °F 29.85 in SSW 5.0 mph 13.0 mph 89 % 0.00 in
01:51 80.2 °F 76.6 °F 29.85 in West 1.0 mph 13.0 mph 89 % 0.00 in
01:56 80.4 °F 76.8 °F 29.85 in South 3.0 mph 13.0 mph 89 % 0.00 in
02:01 80.4 °F 76.8 °F 29.85 in SSW 6.0 mph 13.0 mph 89 % 0.00 in
02:06 80.4 °F 76.8 °F 29.85 in SSE 9.0 mph 10.0 mph 89 % 0.00 in
02:11 80.4 °F 76.8 °F 29.85 in SSW 5.0 mph 16.0 mph 89 % 0.00 in
02:16 80.4 °F 76.8 °F 29.85 in South 6.0 mph 16.0 mph 89 % 0.00 in
02:21 80.4 °F 76.8 °F 29.85 in SSW 6.0 mph 16.0 mph 89 % 0.00 in
02:26 80.4 °F 76.5 °F 29.84 in SSW 7.0 mph 14.0 mph 88 % 0.00 in
02:31 80.4 °F 76.5 °F 29.84 in SSW 6.0 mph 15.0 mph 88 % 0.00 in
02:36 80.4 °F 76.5 °F 29.84 in WSW 6.0 mph 15.0 mph 88 % 0.00 in
02:41 80.4 °F 76.5 °F 29.84 in South 3.0 mph 15.0 mph 88 % 0.00 in
02:46 80.4 °F 76.5 °F 29.84 in SW 1.0 mph 10.0 mph 88 % 0.00 in
02:56 80.4 °F 76.8 °F 29.83 in South 2.0 mph 7.0 mph 89 % 0.00 in
03:01 80.2 °F 76.3 °F 29.83 in South 3.0 mph 7.0 mph 88 % 0.00 in
03:06 80.2 °F 76.3 °F 29.83 in SE 1.0 mph 7.0 mph 88 % 0.00 in
03:11 80.2 °F 76.3 °F 29.83 in SSW 4.0 mph 7.0 mph 88 % 0.00 in
03:16 80.2 °F 76.3 °F 29.82 in SSE 3.0 mph 9.0 mph 88 % 0.00 in
03:21 80.2 °F 76.3 °F 29.82 in SW 5.0 mph 9.0 mph 88 % 0.00 in
03:26 80.2 °F 76.3 °F 29.81 in South 5.0 mph 9.0 mph 88 % 0.00 in
03:31 80.1 °F 76.1 °F 29.82 in SE 3.0 mph 9.0 mph 88 % 0.00 in
03:36 80.1 °F 76.1 °F 29.82 in SSE 4.0 mph 9.0 mph 88 % 0.00 in
03:41 79.9 °F 76.3 °F 29.82 in SE 1.0 mph 9.0 mph 89 % 0.00 in
03:46 79.9 °F 76.3 °F 29.82 in SSE 2.0 mph 8.0 mph 89 % 0.00 in
03:51 79.7 °F 76.1 °F 29.81 in SSE 3.0 mph 8.0 mph 89 % 0.00 in
03:56 79.5 °F 76.3 °F 29.81 in SSE 3.0 mph 6.0 mph 90 % 0.00 in
04:02 79.5 °F 76.3 °F 29.80 in South 4.0 mph 9.0 mph 90 % 0.00 in
04:07 79.5 °F 76.3 °F 29.80 in SSE 3.0 mph 9.0 mph 90 % 0.00 in
04:12 79.3 °F 76.1 °F 29.80 in South 3.0 mph 9.0 mph 90 % 0.00 in
04:17 79.3 °F 76.5 °F 29.79 in SSE 7.0 mph 8.0 mph 91 % 0.00 in
04:22 79.3 °F 76.5 °F 29.80 in South 5.0 mph 8.0 mph 91 % 0.00 in
04:27 79.3 °F 76.5 °F 29.79 in South 5.0 mph 9.0 mph 91 % 0.00 in
04:32 79.2 °F 76.3 °F 29.79 in SSW 4.0 mph 10.0 mph 91 % 0.00 in
04:37 79.2 °F 76.3 °F 29.80 in South 7.0 mph 10.0 mph 91 % 0.00 in
04:42 79.2 °F 76.3 °F 29.80 in SSE 3.0 mph 11.0 mph 91 % 0.00 in
04:47 79.2 °F 76.3 °F 29.80 in South 4.0 mph 12.0 mph 91 % 0.00 in
04:52 79.2 °F 76.3 °F 29.80 in SSW 6.0 mph 12.0 mph 91 % 0.00 in
04:57 79.3 °F 76.5 °F 29.79 in South 5.0 mph 13.0 mph 91 % 0.00 in
05:02 79.3 °F 76.5 °F 29.79 in South 4.0 mph 13.0 mph 91 % 0.00 in
05:07 79.2 °F 76.3 °F 29.79 in SE 6.0 mph 13.0 mph 91 % 0.00 in
05:12 79.2 °F 76.3 °F 29.79 in SSE 4.0 mph 10.0 mph 91 % 0.00 in
05:17 79.2 °F 76.3 °F 29.79 in SSE 4.0 mph 9.0 mph 91 % 0.00 in
05:22 79.2 °F 76.3 °F 29.80 in SSW 2.0 mph 11.0 mph 91 % 0.00 in
05:27 79.0 °F 76.1 °F 29.81 in SE 3.0 mph 11.0 mph 91 % 0.00 in
05:32 79.0 °F 76.1 °F 29.81 in South 2.0 mph 11.0 mph 91 % 0.00 in
05:37 79.0 °F 76.1 °F 29.81 in SSW 1.0 mph 7.0 mph 91 % 0.00 in
05:42 79.0 °F 76.5 °F 29.81 in South 2.0 mph 4.0 mph 92 % 0.00 in
05:47 79.0 °F 76.5 °F 29.81 in South 2.0 mph 4.0 mph 92 % 0.00 in
05:52 79.0 °F 76.5 °F 29.81 in SSW 2.0 mph 4.0 mph 92 % 0.00 in
06:02 79.0 °F 76.5 °F 29.81 in SSE 2.0 mph 5.0 mph 92 % 0.00 in
06:07 79.0 °F 76.5 °F 29.82 in SSW 2.0 mph 5.0 mph 92 % 0.00 in
06:12 79.0 °F 76.5 °F 29.82 in South 4.0 mph 5.0 mph 92 % 0.00 in
06:17 79.2 °F 76.6 °F 29.82 in SSE 4.0 mph 6.0 mph 92 % 0.00 in
06:22 79.2 °F 76.6 °F 29.82 in SE 3.0 mph 8.0 mph 92 % 0.00 in
06:27 79.2 °F 76.6 °F 29.83 in SSE 3.0 mph 8.0 mph 92 % 0.00 in
06:32 79.2 °F 76.6 °F 29.83 in South 1.0 mph 8.0 mph 92 % 0.00 in
06:37 79.2 °F 76.6 °F 29.83 in SSE 2.0 mph 7.0 mph 92 % 0.00 in
06:42 79.3 °F 76.8 °F 29.84 in ESE 3.0 mph 6.0 mph 92 % 0.00 in
06:47 79.3 °F 76.8 °F 29.84 in Calm   7.0 mph 92 % 0.00 in
06:52 79.3 °F 76.5 °F 29.85 in SSE 1.0 mph 7.0 mph 91 % 0.00 in
06:57 79.5 °F 76.6 °F 29.85 in SE 2.0 mph 7.0 mph 91 % 0.00 in
07:02 79.5 °F 76.6 °F 29.85 in SE 3.0 mph 4.0 mph 91 % 0.00 in
07:07 79.7 °F 76.8 °F 29.86 in Calm   3.0 mph 91 % 0.00 in
07:12 79.9 °F 77.0 °F 29.86 in SE 1.0 mph 3.0 mph 91 % 0.00 in
07:17 79.9 °F 77.0 °F 29.87 in South 1.0 mph 3.0 mph 91 % 0.00 in
07:22 80.1 °F 77.2 °F 29.87 in Calm   4.0 mph 91 % 0.00 in
07:27 80.2 °F 77.4 °F 29.87 in Calm   4.0 mph 91 % 0.00 in
07:32 80.2 °F 77.0 °F 29.88 in SSE 1.0 mph 4.0 mph 90 % 0.00 in
07:37 80.4 °F 77.2 °F 29.88 in ESE 1.0 mph 3.0 mph 90 % 0.00 in
07:43 80.8 °F 77.5 °F 29.88 in SSW 2.0 mph 3.0 mph 90 % 0.00 in
07:48 80.8 °F 77.2 °F 29.88 in SSW 2.0 mph 3.0 mph 89 % 0.00 in
07:53 80.8 °F 77.5 °F 29.88 in SSE 2.0 mph 4.0 mph 90 % 0.00 in
07:58 80.8 °F 77.2 °F 29.88 in SE 1.0 mph 5.0 mph 89 % 0.00 in
08:03 80.8 °F 77.2 °F 29.89 in SE 1.0 mph 5.0 mph 89 % 0.00 in
08:08 80.8 °F 77.2 °F 29.89 in SSW 1.0 mph 5.0 mph 89 % 0.00 in
08:13 80.8 °F 77.2 °F 29.90 in SSE 1.0 mph 4.0 mph 89 % 0.00 in
08:18 80.8 °F 77.2 °F 29.89 in South 3.0 mph 4.0 mph 89 % 0.00 in
08:23 81.0 °F 77.4 °F 29.89 in SSE 5.0 mph 6.0 mph 89 % 0.00 in
08:28 81.1 °F 77.2 °F 29.89 in SSW 4.0 mph 9.0 mph 88 % 0.00 in
08:32 81.5 °F 77.5 °F 29.89 in South 4.0 mph 9.0 mph 88 % 0.00 in
08:33 81.7 °F 77.7 °F 29.89 in SSE 5.0 mph 9.0 mph 88 % 0.00 in
08:38 81.9 °F 77.5 °F 29.90 in SSE 3.0 mph 9.0 mph 87 % 0.00 in
08:43 82.0 °F 77.4 °F 29.90 in SSE 6.0 mph 9.0 mph 86 % 0.00 in
08:48 82.2 °F 77.5 °F 29.91 in South 4.0 mph 9.0 mph 86 % 0.00 in
08:53 82.8 °F 77.7 °F 29.91 in SSW 3.0 mph 9.0 mph 85 % 0.00 in
08:58 82.9 °F 77.5 °F 29.92 in South 3.0 mph 8.0 mph 84 % 0.00 in
09:00 82.9 °F 77.5 °F 29.92 in SSE 3.0 mph 8.0 mph 84 % 0.00 in
09:05 82.9 °F 77.5 °F 29.93 in Calm   7.0 mph 84 % 0.00 in
09:10 83.1 °F 77.7 °F 29.94 in Calm   6.0 mph 84 % 0.00 in
09:14 82.9 °F 77.5 °F 29.94 in SE 1.0 mph 5.0 mph 84 % 0.00 in
09:19 82.9 °F 77.2 °F 29.94 in Calm   4.0 mph 83 % 0.00 in
09:24 82.9 °F 77.5 °F 29.94 in SE 4.0 mph 4.0 mph 84 % 0.00 in
09:29 82.9 °F 77.5 °F 29.94 in Calm   4.0 mph 84 % 0.00 in
09:34 82.9 °F 77.5 °F 29.94 in Calm   4.0 mph 84 % 0.00 in
09:39 82.9 °F 77.5 °F 29.94 in Calm   4.0 mph 84 % 0.00 in
09:45 83.1 °F 78.1 °F 29.95 in Calm   3.0 mph 85 % 0.00 in
09:50 83.7 °F 78.3 °F 29.96 in NE 1.0 mph 4.0 mph 84 % 0.00 in
09:55 84.4 °F 79.0 °F 29.96 in ESE 4.0 mph 4.0 mph 84 % 0.00 in
10:00 84.7 °F 78.6 °F 29.96 in NNW 1.0 mph 5.0 mph 82 % 0.00 in
10:05 84.6 °F 77.7 °F 29.96 in Calm   5.0 mph 80 % 0.00 in
10:10 84.7 °F 78.3 °F 29.95 in SE 3.0 mph 5.0 mph 81 % 0.00 in
10:15 85.5 °F 78.6 °F 29.95 in ESE 3.0 mph 6.0 mph 80 % 0.00 in
10:20 86.2 °F 79.0 °F 29.95 in NNW 1.0 mph 6.0 mph 79 % 0.00 in
10:25 87.1 °F 79.7 °F 29.96 in NW 1.0 mph 6.0 mph 79 % 0.00 in
10:30 88.0 °F 78.6 °F 29.95 in SE 4.0 mph 7.0 mph 74 % 0.00 in
10:35 87.6 °F 78.6 °F 29.96 in SSE 2.0 mph 7.0 mph 75 % 0.00 in
10:40 87.6 °F 78.6 °F 29.95 in SE 2.0 mph 7.0 mph 75 % 0.00 in
10:45 88.0 °F 78.6 °F 29.95 in East 2.0 mph 7.0 mph 74 % 0.00 in
10:50 88.2 °F 78.8 °F 29.95 in ESE 5.0 mph 8.0 mph 74 % 0.00 in
10:55 88.0 °F 78.3 °F 29.94 in East 2.0 mph 8.0 mph 73 % 0.00 in
11:00 87.6 °F 78.3 °F 29.94 in SSE 4.0 mph 8.0 mph 74 % 0.00 in
11:05 87.6 °F 78.3 °F 29.94 in SE 3.0 mph 7.0 mph 74 % 0.00 in
11:10 87.6 °F 78.3 °F 29.94 in East 3.0 mph 8.0 mph 74 % 0.00 in
11:15 87.4 °F 77.7 °F 29.94 in East 1.0 mph 10.0 mph 73 % 0.00 in
11:20 88.0 °F 77.9 °F 29.93 in SSE 4.0 mph 10.0 mph 72 % 0.00 in
11:25 88.5 °F 77.9 °F 29.93 in ESE 1.0 mph 10.0 mph 71 % 0.00 in
11:30 88.9 °F 78.6 °F 29.93 in SE 2.0 mph 9.0 mph 72 % 0.00 in
11:35 89.2 °F 78.6 °F 29.93 in SSW 5.0 mph 9.0 mph 71 % 0.00 in
11:40 89.6 °F 78.1 °F 29.93 in South 2.0 mph 11.0 mph 69 % 0.00 in
11:45 89.6 °F 78.1 °F 29.93 in ESE 6.0 mph 11.0 mph 69 % 0.00 in
11:50 90.0 °F 78.4 °F 29.93 in South 5.0 mph 11.0 mph 69 % 0.00 in
11:55 90.0 °F 78.4 °F 29.93 in SE 5.0 mph 10.0 mph 69 % 0.00 in
12:01 90.0 °F 77.5 °F 29.92 in East 10.0 mph 11.0 mph 67 % 0.00 in
12:06 90.1 °F 77.7 °F 29.92 in SW 13.0 mph 15.0 mph 67 % 0.00 in
12:11 90.3 °F 77.4 °F 29.92 in SSE 6.0 mph 15.0 mph 66 % 0.00 in
12:16 90.7 °F 77.7 °F 29.91 in East 6.0 mph 15.0 mph 66 % 0.00 in
12:21 90.7 °F 77.7 °F 29.92 in SE 6.0 mph 13.0 mph 66 % 0.00 in
12:26 90.7 °F 77.4 °F 29.92 in SE 5.0 mph 12.0 mph 65 % 0.00 in
12:31 90.9 °F 78.4 °F 29.91 in SE 6.0 mph 12.0 mph 67 % 0.00 in
12:36 91.0 °F 77.5 °F 29.91 in South 7.0 mph 12.0 mph 65 % 0.00 in
12:41 91.0 °F 77.5 °F 29.91 in SSW 7.0 mph 14.0 mph 65 % 0.00 in
12:46 91.0 °F 77.5 °F 29.91 in SSE 6.0 mph 15.0 mph 65 % 0.00 in
12:51 91.6 °F 78.1 °F 29.91 in South 7.0 mph 15.0 mph 65 % 0.00 in
12:56 91.6 °F 77.7 °F 29.91 in SSE 4.0 mph 15.0 mph 64 % 0.00 in
13:01 91.8 °F 77.9 °F 29.91 in SSE 6.0 mph 13.0 mph 64 % 0.00 in
13:06 91.9 °F 77.5 °F 29.91 in South 7.0 mph 13.0 mph 63 % 0.00 in
13:11 92.5 °F 78.1 °F 29.91 in ESE 5.0 mph 13.0 mph 63 % 0.00 in
13:16 92.5 °F 78.1 °F 29.90 in SE 5.0 mph 12.0 mph 63 % 0.00 in
13:21 91.9 °F 77.0 °F 29.90 in South 6.0 mph 12.0 mph 62 % 0.00 in
13:26 91.8 °F 77.4 °F 29.90 in SE 8.0 mph 12.0 mph 63 % 0.00 in
13:31 91.9 °F 77.0 °F 29.90 in East 12.0 mph 12.0 mph 62 % 0.00 in
13:36 91.8 °F 76.8 °F 29.90 in SSW 8.0 mph 13.0 mph 62 % 0.00 in
13:41 91.8 °F 76.8 °F 29.90 in ESE 7.0 mph 13.0 mph 62 % 0.00 in
13:46 91.8 °F 76.8 °F 29.89 in SSE 4.0 mph 13.0 mph 62 % 0.00 in
13:51 91.8 °F 76.8 °F 29.89 in SE 6.0 mph 13.0 mph 62 % 0.00 in
13:56 91.8 °F 78.3 °F 29.89 in ESE 6.0 mph 14.0 mph 65 % 0.00 in
14:01 91.6 °F 77.7 °F 29.89 in SE 6.0 mph 14.0 mph 64 % 0.00 in
14:06 90.9 °F 77.5 °F 29.89 in East 9.0 mph 14.0 mph 65 % 0.00 in
14:11 90.7 °F 78.3 °F 29.89 in SE 8.0 mph 13.0 mph 67 % 0.00 in
14:16 90.9 °F 78.8 °F 29.89 in SSE 9.0 mph 13.0 mph 68 % 0.00 in
14:21 91.0 °F 78.1 °F 29.89 in ESE 7.0 mph 13.0 mph 66 % 0.00 in
14:26 90.3 °F 77.9 °F 29.89 in SE 8.0 mph 13.0 mph 67 % 0.00 in
14:31 90.3 °F 78.3 °F 29.88 in ESE 3.0 mph 13.0 mph 68 % 0.00 in
14:36 90.1 °F 77.7 °F 29.89 in ESE 13.0 mph 14.0 mph 67 % 0.00 in
14:41 89.8 °F 77.7 °F 29.89 in East 4.0 mph 17.0 mph 68 % 0.00 in
14:46 89.8 °F 77.7 °F 29.89 in SE 5.0 mph 17.0 mph 68 % 0.00 in
14:51 90.0 °F 77.9 °F 29.89 in East 8.0 mph 17.0 mph 68 % 0.00 in
14:56 89.8 °F 77.7 °F 29.89 in SE 7.0 mph 14.0 mph 68 % 0.00 in
15:01 89.4 °F 78.3 °F 29.88 in SSE 8.0 mph 13.0 mph 70 % 0.00 in
15:06 89.2 °F 78.6 °F 29.88 in ESE 7.0 mph 14.0 mph 71 % 0.00 in
15:11 89.4 °F 78.8 °F 29.88 in SSE 5.0 mph 16.0 mph 71 % 0.00 in
15:16 90.0 °F 78.8 °F 29.88 in ESE 5.0 mph 16.0 mph 70 % 0.00 in
15:21 90.1 °F 78.6 °F 29.88 in SSE 10.0 mph 16.0 mph 69 % 0.00 in
15:26 90.5 °F 79.0 °F 29.88 in SE 6.0 mph 15.0 mph 69 % 0.00 in
15:31 90.3 °F 78.3 °F 29.88 in SE 7.0 mph 15.0 mph 68 % 0.00 in
15:36 90.0 °F 77.9 °F 29.88 in South 12.0 mph 14.0 mph 68 % 0.00 in
15:41 90.0 °F 78.4 °F 29.87 in South 6.0 mph 14.0 mph 69 % 0.00 in
15:46 89.8 °F 78.3 °F 29.88 in SE 4.0 mph 13.0 mph 69 % 0.00 in
15:51 89.4 °F 77.9 °F 29.87 in SE 7.0 mph 13.0 mph 69 % 0.00 in
15:56 89.8 °F 78.3 °F 29.87 in SSE 8.0 mph 12.0 mph 69 % 0.00 in
16:01 90.1 °F 78.1 °F 29.87 in East 8.0 mph 12.0 mph 68 % 0.00 in
16:03 90.1 °F 78.1 °F 29.87 in East 7.0 mph 12.0 mph 68 % 0.00 in
16:08 89.8 °F 77.7 °F 29.87 in SSE 5.0 mph 13.0 mph 68 % 0.00 in
16:13 89.8 °F 78.3 °F 29.87 in East 14.0 mph 14.0 mph 69 % 0.00 in
16:18 89.2 °F 77.7 °F 29.87 in ENE 11.0 mph 15.0 mph 69 % 0.00 in
16:23 89.2 °F 78.1 °F 29.86 in SE 8.0 mph 15.0 mph 70 % 0.00 in
16:28 89.2 °F 78.1 °F 29.86 in East 9.0 mph 15.0 mph 70 % 0.00 in
16:33 89.4 °F 77.9 °F 29.86 in SE 9.0 mph 15.0 mph 69 % 0.00 in
16:38 89.8 °F 78.3 °F 29.86 in SE 6.0 mph 17.0 mph 69 % 0.00 in
16:43 89.8 °F 77.7 °F 29.86 in ESE 11.0 mph 17.0 mph 68 % 0.00 in
16:48 89.4 °F 77.9 °F 29.86 in SE 8.0 mph 17.0 mph 69 % 0.00 in
16:53 89.4 °F 77.5 °F 29.86 in ESE 6.0 mph 15.0 mph 68 % 0.00 in
16:58 89.4 °F 77.5 °F 29.85 in SSE 9.0 mph 15.0 mph 68 % 0.00 in
17:03 89.8 °F 77.7 °F 29.85 in SSE 7.0 mph 13.0 mph 68 % 0.00 in
17:08 90.1 °F 78.1 °F 29.84 in SSE 5.0 mph 13.0 mph 68 % 0.00 in
17:09 90.3 °F 78.3 °F 29.84 in South 4.0 mph 13.0 mph 68 % 0.00 in
17:14 90.3 °F 78.3 °F 29.84 in SE 4.0 mph 13.0 mph 68 % 0.00 in
17:19 90.3 °F 77.9 °F 29.84 in ESE 10.0 mph 12.0 mph 67 % 0.00 in
17:24 90.0 °F 78.4 °F 29.83 in SE 5.0 mph 12.0 mph 69 % 0.00 in
17:29 90.1 °F 78.1 °F 29.83 in SE 6.0 mph 12.0 mph 68 % 0.00 in
17:34 90.3 °F 77.9 °F 29.82 in SE 6.0 mph 11.0 mph 67 % 0.00 in
17:39 90.1 °F 77.7 °F 29.81 in SE 8.0 mph 13.0 mph 67 % 0.00 in
17:44 90.1 °F 77.2 °F 29.81 in SW 7.0 mph 13.0 mph 66 % 0.00 in
17:49 90.3 °F 77.4 °F 29.81 in South 8.0 mph 13.0 mph 66 % 0.00 in
17:54 90.3 °F 77.4 °F 29.80 in SE 5.0 mph 11.0 mph 66 % 0.00 in
17:59 90.3 °F 77.4 °F 29.80 in South 5.0 mph 13.0 mph 66 % 0.00 in
18:04 90.1 °F 77.7 °F 29.79 in ESE 5.0 mph 15.0 mph 67 % 0.00 in
18:09 90.0 °F 77.9 °F 29.79 in ESE 10.0 mph 16.0 mph 68 % 0.00 in
18:14 89.6 °F 77.5 °F 29.78 in SSE 7.0 mph 16.0 mph 68 % 0.00 in
18:19 89.8 °F 77.4 °F 29.78 in SSE 6.0 mph 16.0 mph 67 % 0.00 in
18:24 89.2 °F 76.8 °F 29.77 in SSE 14.0 mph 14.0 mph 67 % 0.00 in
18:29 88.5 °F 77.0 °F 29.78 in SSE 8.0 mph 14.0 mph 69 % 0.00 in
18:34 88.0 °F 77.0 °F 29.78 in South 5.0 mph 14.0 mph 70 % 0.00 in
18:39 87.4 °F 76.8 °F 29.78 in South 5.0 mph 14.0 mph 71 % 0.00 in
18:44 87.1 °F 77.0 °F 29.78 in SW 8.0 mph 14.0 mph 72 % 0.00 in
18:49 86.7 °F 76.6 °F 29.79 in South 7.0 mph 13.0 mph 72 % 0.00 in
18:54 86.5 °F 76.5 °F 29.79 in South 2.0 mph 16.0 mph 72 % 0.00 in
18:59 86.5 °F 76.5 °F 29.80 in South 5.0 mph 16.0 mph 72 % 0.00 in
19:04 86.5 °F 76.8 °F 29.81 in SSW 5.0 mph 16.0 mph 73 % 0.00 in
19:09 86.5 °F 76.8 °F 29.82 in SSW 5.0 mph 12.0 mph 73 % 0.00 in
19:14 86.5 °F 76.8 °F 29.82 in SW 3.0 mph 11.0 mph 73 % 0.00 in
19:19 86.4 °F 77.0 °F 29.82 in South 3.0 mph 11.0 mph 74 % 0.00 in
19:24 86.4 °F 76.6 °F 29.81 in SSW 10.0 mph 10.0 mph 73 % 0.00 in
19:29 86.2 °F 77.0 °F 29.81 in SSW 6.0 mph 10.0 mph 74 % 0.00 in
19:34 85.8 °F 76.6 °F 29.80 in SSE 6.0 mph 10.0 mph 74 % 0.00 in
19:39 85.6 °F 76.5 °F 29.80 in South 5.0 mph 11.0 mph 74 % 0.00 in
19:44 85.5 °F 76.3 °F 29.81 in South 1.0 mph 11.0 mph 74 % 0.00 in
19:50 85.5 °F 76.6 °F 29.82 in SSE 2.0 mph 11.0 mph 75 % 0.00 in
19:55 85.3 °F 76.5 °F 29.82 in SE 4.0 mph 11.0 mph 75 % 0.00 in
20:00 85.3 °F 76.8 °F 29.83 in SSE 2.0 mph 11.0 mph 76 % 0.00 in
20:05 84.9 °F 76.5 °F 29.85 in SW 3.0 mph 8.0 mph 76 % 0.00 in
20:10 84.7 °F 76.3 °F 29.86 in SSE 3.0 mph 8.0 mph 76 % 0.00 in
20:15 84.7 °F 76.3 °F 29.87 in South 4.0 mph 8.0 mph 76 % 0.00 in
20:20 84.7 °F 76.6 °F 29.88 in South 5.0 mph 8.0 mph 77 % 0.00 in
20:25 84.7 °F 76.6 °F 29.88 in South 3.0 mph 8.0 mph 77 % 0.00 in
20:30 84.6 °F 76.5 °F 29.88 in South 3.0 mph 8.0 mph 77 % 0.00 in
20:35 84.4 °F 76.8 °F 29.88 in ESE 6.0 mph 6.0 mph 78 % 0.00 in
20:40 84.4 °F 76.8 °F 29.88 in SSW 2.0 mph 6.0 mph 78 % 0.00 in
20:45 84.2 °F 76.6 °F 29.88 in ESE 3.0 mph 6.0 mph 78 % 0.00 in
20:50 84.2 °F 77.0 °F 29.88 in SSE 4.0 mph 6.0 mph 79 % 0.00 in
20:55 84.2 °F 77.0 °F 29.89 in ESE 2.0 mph 6.0 mph 79 % 0.00 in
21:00 84.0 °F 76.8 °F 29.89 in SE 1.0 mph 5.0 mph 79 % 0.00 in
21:05 84.0 °F 76.8 °F 29.90 in South 2.0 mph 5.0 mph 79 % 0.00 in
21:10 83.8 °F 77.0 °F 29.91 in SE 3.0 mph 5.0 mph 80 % 0.00 in
21:15 83.8 °F 77.0 °F 29.91 in SE 2.0 mph 4.0 mph 80 % 0.00 in
21:20 83.7 °F 76.8 °F 29.91 in SE 5.0 mph 5.0 mph 80 % 0.00 in
21:25 83.7 °F 76.8 °F 29.91 in ESE 4.0 mph 6.0 mph 80 % 0.00 in
21:30 83.7 °F 77.2 °F 29.91 in South 4.0 mph 6.0 mph 81 % 0.00 in
21:35 83.7 °F 77.2 °F 29.92 in SE 4.0 mph 7.0 mph 81 % 0.00 in
21:40 83.7 °F 77.2 °F 29.94 in SSE 1.0 mph 7.0 mph 81 % 0.00 in
21:45 83.5 °F 77.0 °F 29.94 in SSE 2.0 mph 7.0 mph 81 % 0.00 in
21:50 83.5 °F 77.0 °F 29.93 in SE 4.0 mph 8.0 mph 81 % 0.00 in
21:55 83.5 °F 77.0 °F 29.93 in SSE 4.0 mph 8.0 mph 81 % 0.00 in
22:00 83.1 °F 76.6 °F 29.93 in SE 3.0 mph 8.0 mph 81 % 0.00 in
22:05 83.1 °F 76.6 °F 29.94 in East 2.0 mph 8.0 mph 81 % 0.00 in
22:10 83.1 °F 76.6 °F 29.94 in ESE 2.0 mph 8.0 mph 81 % 0.00 in
22:12 83.1 °F 76.6 °F 29.94 in SE 2.0 mph 8.0 mph 81 % 0.00 in
22:17 82.9 °F 76.8 °F 29.96 in East 3.0 mph 6.0 mph 82 % 0.00 in
22:22 82.9 °F 76.8 °F 29.96 in ESE 2.0 mph 4.0 mph 82 % 0.00 in
22:27 82.9 °F 76.8 °F 29.97 in SE 2.0 mph 4.0 mph 82 % 0.00 in
22:32 82.8 °F 76.6 °F 29.97 in Calm   4.0 mph 82 % 0.00 in
22:37 82.8 °F 77.0 °F 29.96 in Calm   4.0 mph 83 % 0.00 in
22:42 82.6 °F 76.8 °F 29.96 in Calm   4.0 mph 83 % 0.00 in
22:47 82.6 °F 76.8 °F 29.97 in NNE 1.0 mph 3.0 mph 83 % 0.00 in
22:52 82.4 °F 77.0 °F 29.99 in NNW 5.0 mph 5.0 mph 84 % 0.00 in
22:57 79.9 °F 70.0 °F 30.00 in NNW 10.0 mph 14.0 mph 72 % 0.00 in
23:02 78.1 °F 70.0 °F 30.00 in West 8.0 mph 17.0 mph 76 % 0.00 in
23:07 77.2 °F 69.8 °F 30.01 in North 9.0 mph 18.0 mph 78 % 0.00 in
23:12 76.6 °F 70.0 °F 30.01 in WNW 9.0 mph 18.0 mph 80 % 0.00 in
23:17 75.7 °F 70.5 °F 30.01 in NNW 4.0 mph 18.0 mph 84 % 0.00 in
23:22 74.8 °F 70.3 °F 30.03 in NW 2.0 mph 16.0 mph 86 % 0.00 in
23:27 73.9 °F 70.2 °F 30.04 in NE 4.0 mph 14.0 mph 88 % 0.01 in
23:32 73.2 °F 70.2 °F 30.04 in West 1.0 mph 14.0 mph 90 % 0.04 in
23:37 72.7 °F 69.6 °F 30.04 in Calm   11.0 mph 90 % 0.08 in
23:42 72.0 °F 69.3 °F 30.02 in East 1.0 mph 7.0 mph 91 % 0.18 in
23:47 71.6 °F 69.1 °F 30.03 in Calm   7.0 mph 92 % 0.25 in
23:52 71.4 °F 69.3 °F 30.04 in Calm   3.0 mph 93 % 0.30 in
23:57 71.4 °F 69.3 °F 30.04 in SSE 2.0 mph 4.0 mph 93 % 0.34 in
Spring, Texas: Villages of Bridgestone
Compliments of Weather Underground - 3 mb

Script developed by  Jim McMurry - jmcmurry@mwt.net Adapted for the template by  Wim van der Kuil - Leuven-Template.eu

You find our weather info also at:

UK Metoffice

WeatherCloud

Weather Underground

Mid-South Weather Network

AWEKAS

Citizen Weather Observer Program (CWOP)

HAMweather, WeatherForYou, PWS Weather

Equipment we use:

Weather-station
Davis Vantage Vue

Weather-program
Meteohub

Weather-server
Debian 7.9 x86 (Guest)

Provider
DreamHost

Davis Vantage Vue

Meteohub

Debian 7.9 x86 (Guest)

DreamHost